createdAt,value
2022-11-14T00:00:53.647Z,84.28
2022-11-14T00:05:46.814Z,67.43
2022-11-14T00:08:23.997Z,65.53
2022-11-14T00:10:51.226Z,64.13
2022-11-14T00:13:19.193Z,81.75
2022-11-14T00:15:49.136Z,63.58
2022-11-14T00:18:15.778Z,75.53
2022-11-14T00:20:42.194Z,70.70
2022-11-14T00:25:34.764Z,70.72
2022-11-14T00:28:01.092Z,70.72
2022-11-14T00:30:27.920Z,75.40
2022-11-14T00:32:54.242Z,83.10
2022-11-14T00:35:20.609Z,73.68
2022-11-14T00:37:46.896Z,78.55
2022-11-14T00:40:13.220Z,81.93
2022-11-14T00:42:39.535Z,83.90
2022-11-14T00:45:06.357Z,85.30
2022-11-14T00:47:32.675Z,73.20
2022-11-14T00:49:58.996Z,86.43
2022-11-14T00:52:25.334Z,84.97
2022-11-14T00:54:51.674Z,85.18
2022-11-14T00:57:17.974Z,68.90
2022-11-14T00:59:44.320Z,77.85
2022-11-14T01:02:10.633Z,82.30
2022-11-14T01:04:36.948Z,75.50
2022-11-14T01:07:03.489Z,80.90
2022-11-14T01:09:29.880Z,68.97
2022-11-14T01:14:22.504Z,50.90
2022-11-14T01:16:48.818Z,46.92
2022-11-14T01:19:15.154Z,45.17
2022-11-14T01:21:41.503Z,44.53
2022-11-14T01:24:07.932Z,55.67
2022-11-14T01:29:00.455Z,55.83
2022-11-14T01:31:26.783Z,48.63
2022-11-14T01:33:54.326Z,53.00
2022-11-14T01:36:21.135Z,51.40
2022-11-14T01:38:52.304Z,44.58
2022-11-14T01:41:18.674Z,39.35
2022-11-14T01:43:45.025Z,98.15
2022-11-14T01:46:36.098Z,30.35
2022-11-14T01:49:14.970Z,31.50
2022-11-14T01:51:50.198Z,31.92
2022-11-14T01:54:26.736Z,126.35
2022-11-14T01:56:57.977Z,225.90
2022-11-14T01:59:36.260Z,382.27
2022-11-14T02:02:12.157Z,42.13
2022-11-14T02:04:43.157Z,73.15
2022-11-14T02:07:11.638Z,76.82
2022-11-14T02:09:41.541Z,82.75
2022-11-14T02:12:12.328Z,38.55
2022-11-14T02:14:39.607Z,26.77
2022-11-14T02:20:11.122Z,26.63
2022-11-14T02:22:38.833Z,35.00
2022-11-14T02:25:06.577Z,27.95
2022-11-14T02:27:34.746Z,43.75
2022-11-14T02:30:06.693Z,57.15
2022-11-14T02:32:56.962Z,97.00
2022-11-14T02:35:19.452Z,104.45
2022-11-14T02:40:12.389Z,65.13
2022-11-14T02:42:38.721Z,90.57
2022-11-14T02:45:05.485Z,93.80
2022-11-14T02:47:31.836Z,101.90
2022-11-14T02:49:58.209Z,73.57
2022-11-14T02:52:24.560Z,45.75
2022-11-14T02:54:54.497Z,84.97
2022-11-14T02:57:21.138Z,75.63
2022-11-14T02:59:47.444Z,82.60
2022-11-14T03:02:13.773Z,77.57
2022-11-14T03:04:40.093Z,62.10
2022-11-14T03:07:06.483Z,56.15
2022-11-14T03:11:59.073Z,83.72
2022-11-14T03:14:25.396Z,133.82
2022-11-14T03:16:51.776Z,104.30
2022-11-14T03:19:18.161Z,48.83
2022-11-14T03:21:44.726Z,108.50
2022-11-14T03:24:11.051Z,97.20
2022-11-14T03:26:37.364Z,93.65
2022-11-14T03:29:03.811Z,77.30
2022-11-14T03:33:56.379Z,72.43
2022-11-14T03:36:22.805Z,114.35
2022-11-14T03:38:49.312Z,69.80
2022-11-14T03:43:41.909Z,128.40
2022-11-14T03:46:08.274Z,62.38
2022-11-14T03:48:34.582Z,97.82
2022-11-14T03:51:00.901Z,205.13
2022-11-14T03:53:27.215Z,76.65
2022-11-14T03:55:53.803Z,52.60
2022-11-14T03:58:20.124Z,91.60
2022-11-14T04:00:46.541Z,45.80
2022-11-14T04:05:39.252Z,73.05
2022-11-14T04:08:06.563Z,67.40
2022-11-14T04:10:32.921Z,96.03
2022-11-14T04:12:59.217Z,89.35
2022-11-14T04:15:25.519Z,65.75
2022-11-14T04:17:51.814Z,72.80
2022-11-14T04:20:18.155Z,55.28
2022-11-14T04:22:46.340Z,62.35
2022-11-14T04:25:12.656Z,62.40
2022-11-14T04:27:39.076Z,67.82
2022-11-14T04:30:06.396Z,73.47
2022-11-14T04:32:32.843Z,32.72
2022-11-14T04:34:59.335Z,48.10
2022-11-14T04:39:51.880Z,34.78
2022-11-14T04:42:18.222Z,67.25
2022-11-14T04:44:44.627Z,53.22
2022-11-14T04:47:11.018Z,70.85
2022-11-14T04:49:37.358Z,64.00
2022-11-14T04:52:03.783Z,134.35
2022-11-14T04:54:30.076Z,83.35
2022-11-14T04:56:56.419Z,64.13
2022-11-14T04:59:22.741Z,50.25
2022-11-14T05:01:49.125Z,60.60
2022-11-14T05:04:15.668Z,54.38
2022-11-14T05:09:09.456Z,87.60
2022-11-14T05:11:35.794Z,47.03
2022-11-14T05:14:02.122Z,91.53
2022-11-14T05:16:28.465Z,151.40
2022-11-14T05:18:54.801Z,83.38
2022-11-14T05:21:21.126Z,170.20
2022-11-14T05:23:47.447Z,190.35
2022-11-14T05:26:16.720Z,188.23
2022-11-14T05:28:43.035Z,240.80
2022-11-14T05:31:11.538Z,208.27
2022-11-14T05:33:37.870Z,180.45
2022-11-14T05:36:06.903Z,165.77
2022-11-14T05:38:33.581Z,53.55
2022-11-14T05:41:00.395Z,75.15
2022-11-14T05:43:29.578Z,92.70
2022-11-14T05:46:02.406Z,75.80
2022-11-14T05:48:29.991Z,50.33
2022-11-14T05:50:58.001Z,64.45
2022-11-14T05:53:25.181Z,66.53
2022-11-14T05:55:51.489Z,57.83
2022-11-14T05:58:18.320Z,63.78
2022-11-14T06:00:51.957Z,59.58
2022-11-14T06:03:20.395Z,58.25
2022-11-14T06:05:46.730Z,59.40
2022-11-14T06:08:13.069Z,29.40
2022-11-14T06:10:39.415Z,70.32
2022-11-14T06:13:05.731Z,50.63
2022-11-14T06:15:32.074Z,55.88
2022-11-14T06:17:58.387Z,68.63
2022-11-14T06:20:24.714Z,44.38
2022-11-14T06:22:54.385Z,100.75
2022-11-14T06:25:20.916Z,45.50
2022-11-14T06:30:13.720Z,36.80
2022-11-14T06:35:06.503Z,32.30
2022-11-14T06:40:00.303Z,60.22
2022-11-14T06:42:26.588Z,50.40
2022-11-14T06:44:52.907Z,69.65
2022-11-14T06:47:19.229Z,65.53
2022-11-14T06:49:45.533Z,51.63
2022-11-14T06:52:11.851Z,35.30
2022-11-14T06:54:38.195Z,62.72
2022-11-14T06:57:05.673Z,62.63
2022-11-14T06:59:31.998Z,58.42
2022-11-14T07:01:58.313Z,76.53
2022-11-14T07:04:24.652Z,55.38
2022-11-14T07:06:51.023Z,77.45
2022-11-14T07:09:17.423Z,71.93
2022-11-14T07:11:43.755Z,70.80
2022-11-14T07:14:10.111Z,53.60
2022-11-14T07:16:36.435Z,63.72
2022-11-14T07:19:07.169Z,49.65
2022-11-14T07:21:34.688Z,52.17
2022-11-14T07:24:01.004Z,48.28
2022-11-14T07:26:27.320Z,53.70
2022-11-14T07:28:57.848Z,68.72
2022-11-14T07:31:27.268Z,64.63
2022-11-14T07:33:54.533Z,37.65
2022-11-14T07:36:20.893Z,54.95
2022-11-14T07:38:47.360Z,66.60
2022-11-14T07:43:41.694Z,82.65
2022-11-14T07:46:15.169Z,40.42
2022-11-14T07:48:41.755Z,57.67
2022-11-14T07:51:14.221Z,111.90
2022-11-14T07:56:08.764Z,48.65
2022-11-14T07:58:36.353Z,57.28
2022-11-14T08:01:04.450Z,54.75
2022-11-14T08:03:31.177Z,69.03
2022-11-14T08:06:12.105Z,79.22
2022-11-14T08:08:38.774Z,72.03
2022-11-14T08:11:05.504Z,87.65
2022-11-14T08:13:33.465Z,68.40
2022-11-14T08:16:12.359Z,42.95
2022-11-14T08:18:39.969Z,102.18
2022-11-14T08:21:06.454Z,117.25
2022-11-14T08:25:59.863Z,57.30
2022-11-14T08:28:30.090Z,50.60
2022-11-14T08:31:00.984Z,54.85
2022-11-14T08:33:27.297Z,85.85
2022-11-14T08:35:53.642Z,58.60
2022-11-14T08:38:19.962Z,58.55
2022-11-14T08:40:46.273Z,72.78
2022-11-14T08:43:12.609Z,34.60
2022-11-14T08:45:38.910Z,42.70
2022-11-14T08:48:05.502Z,31.50
2022-11-14T08:50:31.857Z,37.75
2022-11-14T08:52:58.194Z,38.13
2022-11-14T08:55:24.513Z,33.45
2022-11-14T08:57:53.445Z,38.05
2022-11-14T09:00:20.110Z,29.27
2022-11-14T09:02:46.488Z,22.48
2022-11-14T09:07:39.119Z,25.10
2022-11-14T09:10:06.219Z,26.27
2022-11-14T09:12:33.090Z,27.40
2022-11-14T09:14:59.559Z,33.90
2022-11-14T09:17:25.907Z,26.90
2022-11-14T09:22:18.625Z,36.47
2022-11-14T09:27:11.150Z,32.13
2022-11-14T09:29:37.459Z,39.33
2022-11-14T09:32:03.918Z,32.13
2022-11-14T09:34:30.274Z,31.15
2022-11-14T09:39:22.816Z,43.40
2022-11-14T09:44:47.367Z,30.85
2022-11-14T09:47:20.805Z,36.20
2022-11-14T09:49:50.719Z,36.15
2022-11-14T09:52:38.607Z,32.92
2022-11-14T09:55:16.332Z,29.27
2022-11-14T09:57:44.373Z,28.60
2022-11-14T10:00:19.729Z,37.63
2022-11-14T10:03:14.095Z,33.47
2022-11-14T10:05:52.595Z,28.45
2022-11-14T10:08:26.384Z,30.45
2022-11-14T10:11:01.151Z,32.35
2022-11-14T10:13:49.136Z,26.75
2022-11-14T10:16:24.306Z,30.52
2022-11-14T10:19:11.207Z,20.55
2022-11-14T10:21:54.606Z,25.85
2022-11-14T10:24:39.217Z,25.50
2022-11-14T10:27:10.621Z,23.17
2022-11-14T10:30:03.965Z,19.80
2022-11-14T10:32:37.972Z,22.88
2022-11-14T10:35:18.800Z,27.48
2022-11-14T10:38:02.151Z,26.38
2022-11-14T10:40:48.306Z,26.77
2022-11-14T10:43:33.317Z,24.50
2022-11-14T10:46:21.495Z,26.83
2022-11-14T10:48:50.630Z,24.15
2022-11-14T10:51:43.618Z,21.90
2022-11-14T10:54:09.899Z,26.98
2022-11-14T10:59:12.383Z,19.00
2022-11-14T11:01:41.345Z,23.65
2022-11-14T11:04:26.396Z,26.85
2022-11-14T11:07:19.202Z,24.35
2022-11-14T11:09:58.853Z,21.85
2022-11-14T11:12:43.264Z,26.08
2022-11-14T11:15:23.070Z,23.30
2022-11-14T11:17:59.097Z,20.63
2022-11-14T11:20:38.772Z,19.35
2022-11-14T11:23:10.835Z,20.85
2022-11-14T11:25:39.234Z,24.75
2022-11-14T11:28:15.488Z,23.83
2022-11-14T11:30:56.113Z,23.50
2022-11-14T11:33:25.224Z,23.00
2022-11-14T11:35:56.460Z,23.63
2022-11-14T11:38:25.957Z,24.98
2022-11-14T11:40:58.050Z,23.67
2022-11-14T11:43:46.884Z,22.92
2022-11-14T11:46:21.182Z,23.58
2022-11-14T11:48:51.435Z,20.17
2022-11-14T11:51:22.526Z,23.73
2022-11-14T11:54:04.074Z,25.75
2022-11-14T11:56:32.172Z,24.00
2022-11-14T11:59:17.895Z,22.52
2022-11-14T12:01:47.914Z,23.33
2022-11-14T12:04:14.393Z,21.15
2022-11-14T12:07:16.622Z,20.23
2022-11-14T12:12:44.280Z,23.90
2022-11-14T12:15:43.854Z,23.27
2022-11-14T12:18:56.969Z,21.92
2022-11-14T12:21:48.272Z,20.90
2022-11-14T12:24:25.110Z,21.08
2022-11-14T12:27:06.061Z,22.83
2022-11-14T12:29:38.252Z,22.10
2022-11-14T12:32:08.508Z,20.00
2022-11-14T12:34:43.146Z,21.98
2022-11-14T12:37:15.977Z,25.45
2022-11-14T12:39:42.942Z,21.63
2022-11-14T12:42:13.059Z,21.50
2022-11-14T12:44:40.181Z,23.15
2022-11-14T12:47:06.485Z,23.15
2022-11-14T12:49:48.070Z,25.33
2022-11-14T12:52:52.196Z,25.08
2022-11-14T12:55:18.433Z,25.40
2022-11-14T13:00:17.975Z,25.75
2022-11-14T13:03:32.381Z,27.15
2022-11-14T13:06:21.666Z,26.80
2022-11-14T13:09:20.281Z,30.13
2022-11-14T13:11:49.757Z,27.45
2022-11-14T13:14:17.609Z,30.00
2022-11-14T13:16:43.936Z,26.35
2022-11-14T13:19:10.190Z,28.38
2022-11-14T13:24:12.054Z,29.80
2022-11-14T13:26:40.554Z,32.25
2022-11-14T13:29:06.997Z,38.72
2022-11-14T13:31:33.252Z,31.30
2022-11-14T13:36:44.970Z,27.45
2022-11-14T13:39:18.026Z,31.23
2022-11-14T13:42:05.061Z,30.65
2022-11-14T13:45:08.409Z,30.15
2022-11-14T13:48:02.206Z,34.97
2022-11-14T13:50:33.027Z,30.02
2022-11-14T13:52:59.744Z,30.33
2022-11-14T13:55:57.865Z,31.88
2022-11-14T13:58:41.987Z,28.95
2022-11-14T14:01:33.454Z,28.95
2022-11-14T14:04:33.297Z,33.78
2022-11-14T14:07:22.004Z,32.63
2022-11-14T14:10:06.019Z,30.25
2022-11-14T14:12:58.965Z,27.10
2022-11-14T14:15:33.569Z,28.20
2022-11-14T14:18:09.373Z,29.17
2022-11-14T14:20:51.986Z,22.85
2022-11-14T14:23:36.688Z,23.52
2022-11-14T14:26:15.058Z,18.08
2022-11-14T14:29:05.744Z,23.90
2022-11-14T14:31:37.350Z,18.77
2022-11-14T14:34:21.472Z,16.27
2022-11-14T14:36:53.805Z,19.17
2022-11-14T14:39:26.121Z,17.00
2022-11-14T14:41:55.483Z,18.08
2022-11-14T14:44:23.479Z,20.27
2022-11-14T14:46:50.173Z,20.08
2022-11-14T14:49:36.572Z,19.23
2022-11-14T14:52:19.818Z,21.25
2022-11-14T14:54:54.881Z,19.95
2022-11-14T14:57:23.350Z,18.42
2022-11-14T15:00:06.303Z,20.30
2022-11-14T15:02:33.271Z,20.23
2022-11-14T15:05:00.505Z,21.55
2022-11-14T15:07:29.259Z,19.92
2022-11-14T15:09:59.309Z,21.92
2022-11-14T15:12:29.049Z,21.58
2022-11-14T15:14:56.321Z,20.50
2022-11-14T15:17:23.103Z,19.92
2022-11-14T15:19:52.473Z,19.85
2022-11-14T15:22:18.768Z,20.05
2022-11-14T15:27:30.654Z,20.55
2022-11-14T15:30:03.672Z,23.33
2022-11-14T15:32:30.237Z,22.38
2022-11-14T15:35:20.184Z,21.63
2022-11-14T15:38:42.445Z,22.50
2022-11-14T15:41:16.786Z,22.30
2022-11-14T15:43:43.433Z,19.08
2022-11-14T15:46:38.244Z,18.50
2022-11-14T15:49:08.646Z,19.63
2022-11-14T15:51:45.836Z,18.25
2022-11-14T15:54:29.140Z,18.63
2022-11-14T15:57:00.739Z,19.88
2022-11-14T15:59:29.733Z,19.60
2022-11-14T16:02:04.206Z,20.15
2022-11-14T16:04:34.000Z,17.90
2022-11-14T16:07:00.447Z,20.10
2022-11-14T16:09:26.867Z,18.30
2022-11-14T16:11:53.223Z,18.95
2022-11-14T16:14:19.560Z,20.38
2022-11-14T16:16:45.895Z,19.00
2022-11-14T16:19:15.202Z,20.80
2022-11-14T16:21:41.923Z,19.45
2022-11-14T16:24:34.597Z,17.75
2022-11-14T16:27:01.559Z,18.38
2022-11-14T16:29:28.203Z,19.88
2022-11-14T16:31:54.672Z,21.08
2022-11-14T16:34:25.416Z,18.73
2022-11-14T16:37:00.852Z,18.73
2022-11-14T16:39:27.387Z,19.33
2022-11-14T16:41:53.750Z,21.35
2022-11-14T16:44:20.120Z,19.00
2022-11-14T16:46:46.573Z,20.75
2022-11-14T16:49:14.682Z,20.38
2022-11-14T16:51:50.321Z,20.25
2022-11-14T16:54:19.929Z,19.13
2022-11-14T16:56:48.141Z,17.98
2022-11-14T16:59:14.497Z,20.48
2022-11-14T17:01:40.945Z,19.05
2022-11-14T17:04:07.286Z,18.02
2022-11-14T17:06:33.709Z,20.10
2022-11-14T17:09:00.311Z,18.60
2022-11-14T17:11:27.362Z,16.52
2022-11-14T17:13:54.824Z,19.05
2022-11-14T17:16:21.127Z,16.48
2022-11-14T17:21:17.586Z,19.23
2022-11-14T17:23:43.900Z,21.70
2022-11-14T17:28:37.831Z,17.98
2022-11-14T17:31:10.821Z,22.52
2022-11-14T17:33:38.044Z,22.45
2022-11-14T17:36:09.980Z,22.02
2022-11-14T17:38:37.625Z,23.13
2022-11-14T17:41:04.360Z,23.30
2022-11-14T17:43:35.775Z,23.52
2022-11-14T17:46:05.435Z,20.33
2022-11-14T17:48:33.147Z,22.95
2022-11-14T17:51:07.468Z,22.05
2022-11-14T17:53:34.581Z,23.45
2022-11-14T17:56:01.064Z,21.92
2022-11-14T17:58:32.349Z,21.40
2022-11-14T18:00:59.253Z,22.48
2022-11-14T18:03:26.939Z,22.17
2022-11-14T18:05:53.759Z,22.05
2022-11-14T18:08:20.088Z,22.27
2022-11-14T18:10:46.583Z,23.23
2022-11-14T18:13:12.920Z,23.67
2022-11-14T18:15:39.341Z,21.90
2022-11-14T18:18:05.724Z,24.20
2022-11-14T18:20:32.134Z,21.90
2022-11-14T18:22:58.444Z,22.58
2022-11-14T18:25:24.787Z,23.27
2022-11-14T18:27:51.123Z,21.88
2022-11-14T18:30:40.337Z,21.95
2022-11-14T18:33:04.255Z,25.50
2022-11-14T18:35:30.617Z,21.83
2022-11-14T18:37:57.786Z,23.70
2022-11-14T18:40:24.119Z,23.73
2022-11-14T18:42:50.473Z,24.70
2022-11-14T18:45:16.957Z,24.33
2022-11-14T18:47:43.271Z,25.73
2022-11-14T18:50:09.694Z,24.15
2022-11-14T18:52:36.001Z,23.80
2022-11-14T18:55:02.322Z,26.13
2022-11-14T18:57:28.664Z,23.88
2022-11-14T18:59:55.187Z,23.98
2022-11-14T19:02:21.535Z,24.05
2022-11-14T19:04:47.989Z,26.02
2022-11-14T19:07:14.329Z,26.77
2022-11-14T19:09:40.660Z,23.52
2022-11-14T19:14:33.473Z,24.17
2022-11-14T19:16:59.813Z,22.08
2022-11-14T19:19:26.512Z,22.65
2022-11-14T19:21:52.857Z,25.55
2022-11-14T19:24:19.195Z,21.95
2022-11-14T19:26:45.557Z,23.70
2022-11-14T19:29:11.896Z,24.83
2022-11-14T19:31:38.291Z,21.23
2022-11-14T19:34:04.606Z,24.05
2022-11-14T19:36:58.133Z,25.60
2022-11-14T19:39:17.442Z,24.20
2022-11-14T19:41:43.818Z,25.75
2022-11-14T19:44:10.130Z,27.58
2022-11-14T19:46:36.484Z,26.25
2022-11-14T19:49:03.141Z,23.27
2022-11-14T19:51:30.173Z,25.38
2022-11-14T19:53:58.343Z,26.65
2022-11-14T19:56:25.122Z,26.17
2022-11-14T19:58:53.241Z,25.75
2022-11-14T20:01:28.074Z,25.65
2022-11-14T20:03:59.502Z,25.25
2022-11-14T20:06:32.258Z,25.80
2022-11-14T20:09:01.365Z,26.63
2022-11-14T20:11:29.037Z,23.27
2022-11-14T20:13:56.156Z,26.77
2022-11-14T20:16:24.718Z,25.90
2022-11-14T20:18:55.883Z,26.55
2022-11-14T20:21:25.892Z,23.83
2022-11-14T20:23:52.275Z,27.75
2022-11-14T20:26:20.144Z,25.63
2022-11-14T20:28:49.719Z,24.58
2022-11-14T20:31:25.139Z,27.60
2022-11-14T20:33:52.851Z,26.48
2022-11-14T20:36:21.953Z,24.95
2022-11-14T20:38:48.657Z,27.63
2022-11-14T20:41:16.644Z,27.50
2022-11-14T20:43:43.259Z,29.27
2022-11-14T20:46:18.300Z,25.48
2022-11-14T20:48:45.860Z,28.27
2022-11-14T20:51:19.724Z,27.63
2022-11-14T20:53:46.556Z,25.35
2022-11-14T20:56:14.342Z,26.13
2022-11-14T20:58:42.333Z,27.65
2022-11-14T21:01:08.894Z,27.08
2022-11-14T21:03:35.695Z,27.17
2022-11-14T21:06:02.743Z,29.00
2022-11-14T21:08:30.412Z,29.08
2022-11-14T21:11:00.022Z,27.85
2022-11-14T21:13:27.165Z,28.35
2022-11-14T21:15:56.128Z,28.27
2022-11-14T21:18:22.464Z,28.33
2022-11-14T21:23:15.088Z,31.27
2022-11-14T21:28:07.782Z,30.33
2022-11-14T21:33:00.439Z,30.08
2022-11-14T21:37:56.525Z,30.30
2022-11-14T21:42:49.136Z,29.00
2022-11-14T21:47:41.714Z,28.85
2022-11-14T21:52:34.484Z,31.15
2022-11-14T21:57:27.098Z,32.60
2022-11-14T22:02:19.740Z,31.45
2022-11-14T22:07:12.403Z,30.17
2022-11-14T22:09:44.013Z,33.33
2022-11-14T22:12:11.570Z,31.88
2022-11-14T22:17:04.153Z,33.97
2022-11-14T22:21:56.827Z,37.00
2022-11-14T22:24:23.160Z,36.30
2022-11-14T22:29:15.722Z,40.53
2022-11-14T22:34:08.971Z,37.35
2022-11-14T22:36:35.620Z,34.08
2022-11-14T22:39:02.136Z,34.85
2022-11-14T22:41:32.974Z,34.47
2022-11-14T22:44:01.267Z,31.83
2022-11-14T22:46:28.512Z,34.33
2022-11-14T22:48:55.597Z,30.52
2022-11-14T22:51:27.042Z,30.27
2022-11-14T22:53:55.442Z,29.85
2022-11-14T22:56:24.654Z,30.05
2022-11-14T22:58:51.669Z,29.45
2022-11-14T23:01:20.303Z,28.58
2022-11-14T23:03:47.197Z,31.30
2022-11-14T23:06:15.734Z,30.23
2022-11-14T23:08:42.575Z,32.13
2022-11-14T23:11:18.873Z,28.92
2022-11-14T23:13:48.019Z,27.10
2022-11-14T23:16:17.424Z,26.50
2022-11-14T23:18:44.725Z,30.08
2022-11-14T23:21:20.080Z,27.42
2022-11-14T23:23:46.815Z,28.08
2022-11-14T23:26:16.029Z,28.88
2022-11-14T23:28:42.600Z,28.83
2022-11-14T23:31:10.591Z,31.50
2022-11-14T23:33:37.290Z,27.73
2022-11-14T23:36:04.330Z,33.30
2022-11-14T23:38:30.760Z,34.20
2022-11-14T23:41:01.546Z,27.27
2022-11-14T23:43:29.019Z,32.17
2022-11-14T23:45:56.704Z,25.83
2022-11-14T23:48:23.502Z,28.65
2022-11-14T23:50:51.633Z,28.40
2022-11-14T23:53:18.252Z,28.85
2022-11-14T23:55:58.743Z,29.48
2022-11-14T23:58:26.729Z,30.38
